Time;durP1;ratioP1;P1;durP2;ratioP2;P2;SDS_P1;SDS_P2;PMS_P1;PMS_P2;Temp;Humidity;BMP_temperature;BMP_pressure;BME280_temperature;BME280_humidity;BME280_pressure;Samples;Min_cycle;Max_cycle;Signal;HPM_P1;HPM_P2
2022/04/11 00:01:23;;;;;;;4.93;2.30;;;3.50;99.90;;;;;;5071873;28;20044;-69
2022/04/11 00:03:49;;;;;;;4.68;3.00;;;3.40;99.90;;;;;;5072190;28;20119;-69
2022/04/11 00:06:15;;;;;;;2.67;2.15;;;3.50;99.90;;;;;;5071931;28;20033;-69
2022/04/11 00:08:40;;;;;;;4.82;2.25;;;3.50;99.90;;;;;;5071910;28;20036;-69
2022/04/11 00:11:06;;;;;;;5.82;2.88;;;3.50;99.90;;;;;;5071459;28;20045;-68
2022/04/11 00:13:32;;;;;;;3.97;2.53;;;3.50;99.90;;;;;;5071806;28;20059;-68
2022/04/11 00:15:57;;;;;;;4.07;2.33;;;3.50;99.90;;;;;;5071688;28;20119;-69
2022/04/11 00:18:23;;;;;;;4.82;2.70;;;3.50;99.90;;;;;;5070911;28;20048;-69
2022/04/11 00:20:49;;;;;;;3.10;2.53;;;3.50;99.90;;;;;;5071589;28;20512;-68
2022/04/11 00:23:14;;;;;;;4.45;2.30;;;3.50;99.90;;;;;;5071843;28;20044;-69
2022/04/11 00:25:40;;;;;;;5.15;2.47;;;3.50;99.90;;;;;;5070292;28;20047;-69
2022/04/11 00:28:06;;;;;;;2.90;2.10;;;3.50;99.90;;;;;;5071641;28;20076;-69
2022/04/11 00:30:32;;;;;;;4.53;2.50;;;3.50;99.90;;;;;;5071208;28;20048;-69
2022/04/11 00:32:57;;;;;;;4.82;2.25;;;3.40;99.90;;;;;;5070562;28;20090;-69
2022/04/11 00:35:23;;;;;;;3.60;2.05;;;3.50;99.90;;;;;;5071953;28;20041;-69
2022/04/11 00:37:49;;;;;;;5.47;2.17;;;3.40;99.90;;;;;;5071514;28;20044;-69
2022/04/11 00:40:14;;;;;;;3.15;2.35;;;3.40;99.90;;;;;;5071418;28;20041;-68
2022/04/11 00:42:40;;;;;;;5.00;2.20;;;3.40;99.90;;;;;;5071614;28;20107;-69
2022/04/11 00:45:06;;;;;;;3.38;2.17;;;3.40;99.90;;;;;;5071537;28;20444;-69
2022/04/11 00:47:32;;;;;;;4.22;2.08;;;3.40;99.90;;;;;;5071695;28;20063;-69
2022/04/11 00:50:09;;;;;;;5.00;2.20;;;3.40;99.90;;;;;;5071313;28;20498;-69
2022/04/11 00:52:44;;;;;;;3.40;2.22;;;3.40;99.90;;;;;;5071390;28;20551;-69
2022/04/11 00:55:09;;;;;;;4.35;2.92;;;3.30;99.90;;;;;;5071449;28;20051;-69
2022/04/11 00:57:35;;;;;;;3.90;2.20;;;3.30;99.90;;;;;;5071263;28;20049;-69
2022/04/11 01:00:04;;;;;;;7.40;2.70;;;3.30;99.90;;;;;;5071288;28;20128;-69
2022/04/11 01:02:29;;;;;;;8.20;2.60;;;3.20;99.90;;;;;;5071325;28;20072;-69
2022/04/11 01:04:55;;;;;;;3.83;2.10;;;3.10;99.90;;;;;;5074487;28;20087;-69
2022/04/11 01:07:21;;;;;;;3.25;2.38;;;3.00;99.90;;;;;;5075133;28;20115;-69
2022/04/11 01:09:46;;;;;;;2.47;1.88;;;2.90;99.90;;;;;;5074956;28;20033;-69
2022/04/11 01:12:15;;;;;;;7.65;2.40;;;2.90;99.90;;;;;;5073479;28;20040;-69
2022/04/11 01:14:41;;;;;;;5.10;2.20;;;2.80;99.90;;;;;;5075095;28;20103;-68
2022/04/11 01:17:08;;;;;;;3.35;2.05;;;2.70;99.90;;;;;;5073886;28;20036;-69
2022/04/11 01:19:34;;;;;;;3.53;2.08;;;2.70;99.90;;;;;;5074934;28;20037;-69
2022/04/11 01:21:59;;;;;;;3.50;2.17;;;2.70;99.90;;;;;;5074546;28;20043;-68
2022/04/11 01:24:25;;;;;;;3.40;2.35;;;2.70;99.90;;;;;;5074600;28;20040;-68
2022/04/11 01:26:51;;;;;;;6.22;2.35;;;2.70;99.90;;;;;;5074518;28;20521;-69
2022/04/11 01:29:18;;;;;;;4.55;2.17;;;2.70;99.90;;;;;;5074878;28;20032;-69
2022/04/11 01:31:43;;;;;;;3.53;1.95;;;2.70;99.90;;;;;;5074270;28;20549;-68
2022/04/11 01:34:09;;;;;;;2.50;1.98;;;2.70;99.90;;;;;;5073306;28;20166;-69
2022/04/11 01:36:34;;;;;;;3.70;2.67;;;2.70;99.90;;;;;;5074606;28;20048;-68
2022/04/11 01:39:00;;;;;;;4.22;2.40;;;2.70;99.90;;;;;;5074329;28;20123;-68
2022/04/11 01:41:26;;;;;;;6.63;2.45;;;2.80;99.90;;;;;;5074090;28;20047;-69
2022/04/11 01:43:52;;;;;;;5.07;2.63;;;2.80;99.90;;;;;;5073397;28;20040;-68
2022/04/11 01:46:17;;;;;;;3.80;2.33;;;2.80;99.90;;;;;;5074493;28;20063;-69
2022/04/11 01:48:43;;;;;;;3.63;2.30;;;2.80;99.90;;;;;;5074340;28;20036;-69
2022/04/11 01:51:09;;;;;;;5.50;2.35;;;2.80;99.90;;;;;;5074000;28;20093;-69
2022/04/11 01:53:34;;;;;;;5.18;2.67;;;2.70;99.90;;;;;;5074252;28;20036;-69
2022/04/11 01:56:00;;;;;;;4.47;2.85;;;2.70;99.90;;;;;;5074058;28;20039;-69
2022/04/11 01:58:25;;;;;;;2.85;2.22;;;2.70;99.90;;;;;;5074234;28;20032;-69
2022/04/11 02:00:51;;;;;;;4.53;2.70;;;2.70;99.90;;;;;;5073909;28;20041;-69
2022/04/11 02:03:17;;;;;;;3.72;2.45;;;2.70;99.90;;;;;;5074172;28;20040;-68
2022/04/11 02:05:43;;;;;;;4.30;2.20;;;2.70;99.90;;;;;;5073958;28;20040;-68
2022/04/11 02:08:13;;;;;;;4.00;2.38;;;2.70;99.90;;;;;;5073863;28;20107;-69
2022/04/11 02:10:39;;;;;;;3.67;1.85;;;2.70;99.90;;;;;;5073584;28;20040;-68
2022/04/11 02:13:06;;;;;;;5.00;2.75;;;2.60;99.90;;;;;;5074039;28;20519;-69
2022/04/11 02:15:31;;;;;;;5.93;2.50;;;2.70;99.90;;;;;;5073572;28;20036;-69
2022/04/11 02:17:57;;;;;;;5.07;2.83;;;2.70;99.90;;;;;;5073764;28;20040;-69
2022/04/11 02:20:23;;;;;;;5.50;3.00;;;2.70;99.90;;;;;;5073499;28;20037;-69
2022/04/11 02:22:52;;;;;;;4.30;2.75;;;2.70;99.90;;;;;;5073551;28;20516;-69
2022/04/11 02:25:20;;;;;;;4.95;2.97;;;2.60;99.90;;;;;;5073436;28;20043;-68
2022/04/11 02:27:46;;;;;;;3.85;2.28;;;2.60;99.90;;;;;;5073681;28;20128;-69
2022/04/11 02:30:13;;;;;;;5.00;2.33;;;2.60;99.90;;;;;;5073328;28;20507;-69
2022/04/11 02:32:39;;;;;;;4.68;2.35;;;2.60;99.90;;;;;;5073615;28;20044;-69
2022/04/11 02:35:06;;;;;;;3.00;2.45;;;2.60;99.90;;;;;;5073465;28;20063;-68
2022/04/11 02:37:31;;;;;;;5.60;2.53;;;2.60;99.90;;;;;;5073140;28;20037;-69
2022/04/11 02:39:57;;;;;;;4.65;2.55;;;2.60;99.90;;;;;;5073324;28;20040;-69
2022/04/11 02:42:24;;;;;;;5.25;2.45;;;2.60;99.90;;;;;;5072317;28;20083;-68
2022/04/11 02:44:50;;;;;;;4.35;3.13;;;2.60;99.90;;;;;;5073301;28;20097;-68
2022/04/11 02:47:16;;;;;;;4.82;2.88;;;2.60;99.90;;;;;;5055350;28;20127;-69
2022/04/11 02:49:41;;;;;;;5.97;3.65;;;2.60;99.90;;;;;;5073085;28;20071;-69
2022/04/11 02:52:07;;;;;;;4.72;2.55;;;2.60;99.90;;;;;;5071509;28;20049;-69
2022/04/11 02:54:33;;;;;;;5.55;3.17;;;2.50;99.90;;;;;;5071989;28;20036;-68
2022/04/11 02:56:58;;;;;;;5.28;4.10;;;2.50;99.90;;;;;;5073041;28;20040;-68
2022/04/11 02:59:24;;;;;;;4.55;2.80;;;2.60;99.90;;;;;;5073082;28;20136;-69
2022/04/11 03:01:50;;;;;;;4.63;2.75;;;2.60;99.90;;;;;;5071390;28;20072;-68
2022/04/11 03:04:18;;;;;;;6.40;2.80;;;2.60;99.90;;;;;;5072840;28;20037;-69
2022/04/11 03:06:44;;;;;;;6.50;3.28;;;2.50;99.90;;;;;;5072539;28;20065;-69
2022/04/11 03:09:09;;;;;;;5.50;2.45;;;2.50;99.90;;;;;;5072950;28;20064;-69
2022/04/11 03:11:35;;;;;;;7.07;2.90;;;2.50;99.90;;;;;;5072554;28;20566;-68
2022/04/11 03:14:01;;;;;;;6.35;2.80;;;2.50;99.90;;;;;;5071435;28;20043;-68
2022/04/11 03:16:26;;;;;;;3.55;2.53;;;2.50;99.90;;;;;;5072710;28;20064;-69
2022/04/11 03:18:52;;;;;;;4.63;2.50;;;2.50;99.90;;;;;;5072586;28;20137;-69
2022/04/11 03:21:18;;;;;;;4.90;3.15;;;2.50;99.90;;;;;;5072114;28;20040;-69
2022/04/11 03:23:43;;;;;;;5.32;2.67;;;2.40;99.90;;;;;;5072418;28;20040;-69
2022/04/11 03:26:09;;;;;;;6.38;3.03;;;2.40;99.90;;;;;;5071776;28;20494;-69
2022/04/11 03:28:34;;;;;;;4.30;3.05;;;2.40;99.90;;;;;;5072470;28;20029;-69
2022/04/11 03:31:00;;;;;;;8.68;3.05;;;2.40;99.90;;;;;;5072085;28;20504;-69
2022/04/11 03:33:29;;;;;;;7.35;3.00;;;2.40;99.90;;;;;;5071068;28;20498;-69
2022/04/11 03:35:54;;;;;;;7.97;3.63;;;2.40;99.90;;;;;;5071138;28;20036;-69
2022/04/11 03:38:20;;;;;;;9.18;3.15;;;2.50;99.90;;;;;;5072107;28;20541;-68
2022/04/11 03:40:45;;;;;;;5.57;3.22;;;2.50;99.90;;;;;;5072000;28;20040;-68
2022/04/11 03:43:11;;;;;;;8.85;2.72;;;2.50;99.90;;;;;;5072295;28;20444;-68
2022/04/11 03:45:37;;;;;;;4.50;3.13;;;2.50;99.90;;;;;;5072052;28;20482;-69
2022/04/11 03:48:02;;;;;;;8.55;3.67;;;2.60;99.90;;;;;;5072013;28;20090;-69
2022/04/11 03:50:28;;;;;;;6.57;4.15;;;2.60;99.90;;;;;;5070380;28;20032;-68
2022/04/11 03:52:54;;;;;;;7.18;3.70;;;2.70;99.90;;;;;;5072238;28;20090;-69
2022/04/11 03:55:19;;;;;;;5.45;3.67;;;2.70;99.90;;;;;;5072121;28;20068;-69
2022/04/11 03:57:45;;;;;;;6.25;3.63;;;2.70;99.90;;;;;;5072049;28;20044;-69
2022/04/11 04:00:11;;;;;;;4.28;2.67;;;2.80;99.90;;;;;;5070431;28;20537;-68
2022/04/11 04:02:38;;;;;;;5.25;2.80;;;2.80;99.90;;;;;;5071904;28;20478;-69
2022/04/11 04:05:04;;;;;;;7.30;3.15;;;2.80;99.90;;;;;;5071720;28;20382;-68
2022/04/11 04:07:29;;;;;;;5.50;3.40;;;2.90;99.90;;;;;;5071780;28;20054;-68
2022/04/11 04:09:55;;;;;;;6.47;3.00;;;2.90;99.90;;;;;;5071725;28;20120;-69
2022/04/11 04:12:21;;;;;;;6.20;2.83;;;3.00;99.90;;;;;;5071821;28;20494;-69
2022/04/11 04:14:48;;;;;;;7.30;3.22;;;3.00;99.90;;;;;;5071849;28;20036;-69
2022/04/11 04:17:13;;;;;;;6.60;2.88;;;3.10;99.90;;;;;;5071740;28;20402;-69
2022/04/11 04:19:39;;;;;;;4.60;3.05;;;3.10;99.90;;;;;;5071514;28;20040;-69
2022/04/11 04:22:05;;;;;;;3.30;2.53;;;3.10;99.90;;;;;;5071693;28;20145;-69
2022/04/11 04:24:36;;;;;;;5.78;3.33;;;3.10;99.90;;;;;;5071881;28;20033;-69
2022/04/11 04:27:03;;;;;;;4.65;2.70;;;3.10;99.90;;;;;;5070521;28;20033;-69
2022/04/11 04:29:28;;;;;;;4.78;2.85;;;3.10;99.90;;;;;;5070517;28;20044;-69
2022/04/11 04:31:54;;;;;;;5.03;2.70;;;3.20;99.90;;;;;;5071325;28;20536;-69
2022/04/11 04:34:20;;;;;;;5.75;3.25;;;3.20;99.90;;;;;;5070483;28;20048;-69
2022/04/11 04:36:47;;;;;;;9.35;3.33;;;3.20;99.90;;;;;;5071538;28;20044;-69
2022/04/11 04:39:12;;;;;;;6.97;3.10;;;3.30;99.90;;;;;;5075593;28;20040;-69
2022/04/11 04:41:38;;;;;;;6.25;3.15;;;3.30;99.90;;;;;;5075422;28;20044;-69
2022/04/11 04:44:06;;;;;;;4.97;2.85;;;3.30;99.90;;;;;;5075610;28;20062;-69
2022/04/11 04:46:32;;;;;;;6.03;2.95;;;3.40;99.90;;;;;;5057402;28;20036;-68
2022/04/11 04:48:58;;;;;;;5.60;3.03;;;3.40;99.90;;;;;;5075248;28;20555;-66
2022/04/11 04:51:23;;;;;;;4.20;2.67;;;3.40;99.90;;;;;;5075328;28;20036;-67
2022/04/11 04:53:49;;;;;;;7.60;3.08;;;3.40;99.90;;;;;;5075545;28;20040;-67
2022/04/11 04:56:15;;;;;;;4.47;2.58;;;3.50;99.90;;;;;;5075489;28;20044;-67
2022/04/11 04:58:40;;;;;;;6.13;3.00;;;3.50;99.90;;;;;;5075110;28;20044;-67
2022/04/11 05:01:06;;;;;;;4.35;2.53;;;3.50;99.90;;;;;;5074961;28;20401;-67
2022/04/11 05:03:32;;;;;;;4.60;2.95;;;3.50;99.90;;;;;;5075504;28;20542;-67
2022/04/11 05:05:57;;;;;;;4.60;2.60;;;3.50;99.90;;;;;;5075051;28;20070;-67
2022/04/11 05:08:23;;;;;;;6.78;2.80;;;3.60;99.90;;;;;;5075135;28;20036;-67
2022/04/11 05:10:48;;;;;;;4.82;3.08;;;3.60;99.90;;;;;;5074855;28;20405;-67
2022/04/11 05:13:14;;;;;;;4.68;2.75;;;3.60;99.90;;;;;;5074712;28;20502;-67
2022/04/11 05:15:42;;;;;;;5.63;3.25;;;3.60;99.90;;;;;;5082276;28;20048;-67
2022/04/11 05:18:08;;;;;;;5.03;2.92;;;3.60;99.90;;;;;;5081362;28;20498;-68
2022/04/11 05:20:34;;;;;;;6.53;3.40;;;3.60;99.90;;;;;;5074647;28;20101;-67
2022/04/11 05:23:00;;;;;;;4.45;2.47;;;3.70;99.90;;;;;;5075078;28;20040;-67
2022/04/11 05:25:25;;;;;;;6.15;3.25;;;3.70;99.90;;;;;;5073397;28;20055;-67
2022/04/11 05:27:52;;;;;;;4.63;2.80;;;3.70;99.90;;;;;;5074617;28;20327;-67
2022/04/11 05:30:18;;;;;;;4.97;3.03;;;3.70;99.90;;;;;;5074423;28;20037;-70
2022/04/11 05:32:43;;;;;;;6.00;3.58;;;3.80;99.90;;;;;;5074558;28;20090;-69
2022/04/11 05:35:09;;;;;;;6.03;3.05;;;3.80;99.90;;;;;;5074604;28;20044;-69
2022/04/11 05:37:35;;;;;;;8.10;3.30;;;3.80;99.90;;;;;;5074498;28;20036;-72
2022/04/11 05:40:01;;;;;;;6.50;3.33;;;3.80;99.90;;;;;;5074143;28;20524;-71
2022/04/11 05:42:27;;;;;;;8.50;2.95;;;3.90;99.90;;;;;;5074466;28;20036;-71
2022/04/11 05:44:52;;;;;;;7.15;2.97;;;3.90;99.90;;;;;;5074384;28;20068;-72
2022/04/11 05:47:18;;;;;;;4.00;2.80;;;4.00;99.90;;;;;;5074144;28;20544;-73
2022/04/11 05:49:43;;;;;;;6.50;2.80;;;4.00;99.90;;;;;;5055764;28;20459;-71
2022/04/11 05:52:15;;;;;;;5.43;2.58;;;4.10;99.90;;;;;;5072786;28;20566;-71
2022/04/11 05:54:40;;;;;;;6.00;2.95;;;4.20;99.90;;;;;;5074461;28;20036;-71
2022/04/11 05:57:06;;;;;;;6.38;2.40;;;4.20;99.90;;;;;;5074255;28;20402;-71
2022/04/11 05:59:31;;;;;;;6.82;2.90;;;4.20;99.90;;;;;;5074116;28;20039;-71
2022/04/11 06:01:57;;;;;;;4.68;2.63;;;4.20;99.90;;;;;;5072406;28;20040;-72
2022/04/11 06:04:23;;;;;;;8.13;3.10;;;4.30;99.90;;;;;;5072854;28;20040;-72
2022/04/11 06:06:48;;;;;;;5.68;2.97;;;4.30;99.90;;;;;;5073971;28;20052;-72
2022/04/11 06:09:14;;;;;;;4.57;3.03;;;4.30;99.90;;;;;;5074030;28;20036;-72
2022/04/11 06:11:40;;;;;;;7.32;3.05;;;4.30;99.90;;;;;;5072547;28;20390;-72
2022/04/11 06:14:06;;;;;;;4.35;3.35;;;4.40;99.90;;;;;;5073858;28;20475;-72
2022/04/11 06:16:31;;;;;;;4.22;3.03;;;4.40;99.90;;;;;;5073739;28;20040;-71
2022/04/11 06:18:57;;;;;;;4.65;2.67;;;4.40;99.90;;;;;;5073683;28;20682;-72
2022/04/11 06:21:24;;;;;;;7.38;2.97;;;4.40;99.90;;;;;;5055418;28;20094;-73
2022/04/11 06:23:49;;;;;;;4.75;3.20;;;4.50;99.90;;;;;;5072363;28;20040;-73
2022/04/11 06:26:15;;;;;;;4.50;2.60;;;4.50;99.90;;;;;;5073487;28;20405;-73
2022/04/11 06:28:41;;;;;;;5.40;2.70;;;4.50;99.90;;;;;;5073475;28;20041;-73
2022/04/11 06:31:09;;;;;;;4.65;2.83;;;4.50;99.90;;;;;;5073085;28;20079;-73
2022/04/11 06:33:36;;;;;;;4.22;3.03;;;4.60;99.90;;;;;;5073568;28;20037;-71
2022/04/11 06:36:02;;;;;;;5.47;2.50;;;4.60;99.90;;;;;;5073580;28;20040;-73
2022/04/11 06:38:28;;;;;;;5.00;2.75;;;4.60;99.90;;;;;;5073186;28;20036;-73
2022/04/11 06:40:55;;;;;;;6.40;2.78;;;4.70;99.90;;;;;;5073055;28;20181;-72
2022/04/11 06:43:21;;;;;;;7.63;2.42;;;4.80;99.90;;;;;;5072022;28;20040;-71
2022/04/11 06:45:46;;;;;;;5.43;2.53;;;4.90;99.90;;;;;;5073011;28;20131;-72
2022/04/11 06:48:12;;;;;;;5.85;2.63;;;5.00;99.90;;;;;;5073304;28;20039;-72
2022/04/11 06:50:37;;;;;;;4.70;2.67;;;5.00;99.90;;;;;;5072996;28;20037;-72
2022/04/11 06:53:03;;;;;;;6.35;2.75;;;5.10;99.90;;;;;;5073174;28;20033;-71
2022/04/11 06:55:28;;;;;;;8.95;2.75;;;5.10;99.90;;;;;;5072944;28;20044;-73
2022/04/11 06:57:54;;;;;;;6.00;3.15;;;5.20;99.90;;;;;;5072745;28;20115;-73
2022/04/11 07:00:20;;;;;;;7.25;2.83;;;5.20;99.90;;;;;;5072801;28;20036;-73
2022/04/11 07:02:45;;;;;;;7.22;2.78;;;5.20;99.90;;;;;;5073008;28;20036;-72
2022/04/11 07:05:11;;;;;;;7.85;3.33;;;5.30;99.90;;;;;;5072900;28;20086;-72
2022/04/11 07:07:39;;;;;;;8.07;3.60;;;5.40;99.90;;;;;;5072805;28;20036;-73
2022/04/11 07:10:06;;;;;;;6.20;3.53;;;5.40;99.90;;;;;;5072488;28;20036;-72
2022/04/11 07:12:31;;;;;;;8.95;4.38;;;5.50;99.90;;;;;;5072620;28;20040;-73
2022/04/11 07:15:02;;;;;;;10.57;3.25;;;5.50;99.90;;;;;;5072817;28;20039;-73
2022/04/11 07:17:28;;;;;;;7.25;4.30;;;5.50;99.90;;;;;;5072623;28;20085;-72
2022/04/11 07:19:54;;;;;;;7.72;3.40;;;5.60;99.90;;;;;;5072679;28;20059;-72
2022/04/11 07:22:21;;;;;;;6.32;3.47;;;5.60;99.90;;;;;;5072334;28;20033;-73
2022/04/11 07:24:47;;;;;;;4.78;3.25;;;5.70;99.90;;;;;;5072398;28;20037;-73
2022/04/11 07:27:12;;;;;;;8.55;4.35;;;5.80;99.90;;;;;;5072208;28;20387;-73
2022/04/11 07:29:38;;;;;;;6.53;4.22;;;5.90;99.90;;;;;;5072245;28;20036;-73
2022/04/11 07:32:04;;;;;;;6.82;3.17;;;6.00;99.90;;;;;;5072164;28;20040;-73
2022/04/11 07:34:30;;;;;;;7.00;4.15;;;6.10;99.90;;;;;;5072312;28;20036;-73
2022/04/11 07:36:58;;;;;;;6.80;3.88;;;6.20;99.90;;;;;;5070697;28;20456;-73
2022/04/11 07:39:24;;;;;;;7.28;4.22;;;6.30;99.90;;;;;;5072146;28;20478;-73
2022/04/11 07:41:53;;;;;;;8.05;3.97;;;6.30;99.90;;;;;;5071620;28;20098;-73
2022/04/11 07:44:18;;;;;;;13.07;5.38;;;6.40;99.90;;;;;;5071972;28;20089;-72
2022/04/11 07:46:44;;;;;;;6.25;3.80;;;6.50;99.90;;;;;;5070654;28;20441;-73
2022/04/11 07:49:10;;;;;;;8.20;4.50;;;6.60;99.90;;;;;;5072180;28;20040;-73
2022/04/11 07:51:35;;;;;;;9.25;4.10;;;6.80;99.90;;;;;;5071695;28;20068;-73
2022/04/11 07:54:01;;;;;;;8.93;4.00;;;6.70;99.90;;;;;;5071985;28;20037;-73
2022/04/11 07:56:28;;;;;;;8.77;4.55;;;6.90;99.90;;;;;;5070707;28;20528;-73
2022/04/11 07:58:55;;;;;;;7.00;4.03;;;7.00;99.90;;;;;;5070755;28;20040;-73
2022/04/11 08:01:21;;;;;;;7.45;3.28;;;7.10;99.90;;;;;;5071750;28;20032;-73
2022/04/11 08:03:47;;;;;;;4.40;2.85;;;7.30;99.90;;;;;;5070791;28;20036;-73
2022/04/11 08:06:13;;;;;;;5.97;3.45;;;7.40;99.90;;;;;;5071867;28;20044;-73
2022/04/11 08:08:44;;;;;;;6.30;3.65;;;7.50;99.90;;;;;;5071807;28;20040;-73
2022/04/11 08:11:11;;;;;;;8.43;3.88;;;7.60;99.90;;;;;;5071506;28;20049;-73
2022/04/11 08:13:38;;;;;;;6.38;3.72;;;7.70;99.90;;;;;;5071449;28;20093;-73
2022/04/11 08:16:04;;;;;;;7.40;3.63;;;7.80;99.90;;;;;;5071841;28;20051;-73
2022/04/11 08:18:29;;;;;;;7.32;3.70;;;7.80;99.90;;;;;;5071709;28;20413;-73
2022/04/11 08:20:55;;;;;;;7.75;3.60;;;7.90;99.90;;;;;;5071455;28;20049;-73
2022/04/11 08:23:21;;;;;;;7.32;3.65;;;8.20;99.90;;;;;;5071626;28;20037;-73
2022/04/11 08:25:47;;;;;;;5.95;4.05;;;8.30;99.90;;;;;;5071537;28;20170;-73
2022/04/11 08:28:13;;;;;;;9.45;3.65;;;8.60;99.90;;;;;;5071455;28;20029;-73
2022/04/11 08:30:38;;;;;;;8.65;3.50;;;8.60;98.70;;;;;;5071386;28;20463;-73
2022/04/11 08:33:04;;;;;;;5.85;4.20;;;8.80;97.00;;;;;;5071522;28;20033;-73
2022/04/11 08:35:30;;;;;;;7.32;3.28;;;8.90;97.70;;;;;;5071662;28;20079;-73
2022/04/11 08:37:56;;;;;;;7.65;3.33;;;9.20;95.90;;;;;;5070145;28;20083;-73
2022/04/11 08:40:21;;;;;;;8.93;4.18;;;9.50;93.80;;;;;;5071436;28;20040;-73
2022/04/11 08:42:51;;;;;;;6.68;3.45;;;9.90;93.10;;;;;;5071515;28;20078;-73
2022/04/11 08:45:20;;;;;;;5.05;3.63;;;10.00;91.40;;;;;;5071594;28;20033;-73
2022/04/11 08:47:48;;;;;;;6.00;3.97;;;10.20;90.10;;;;;;5071339;28;20568;-73
2022/04/11 08:50:14;;;;;;;5.53;2.90;;;10.40;89.00;;;;;;5069925;28;20501;-73
2022/04/11 08:52:40;;;;;;;4.95;2.67;;;10.50;85.60;;;;;;5069983;28;20505;-73
2022/04/11 08:55:09;;;;;;;5.88;3.10;;;10.70;84.80;;;;;;5070442;28;20076;-73
2022/04/11 08:57:36;;;;;;;5.45;2.83;;;10.90;81.30;;;;;;5070195;28;20082;-73
2022/04/11 09:00:14;;;;;;;5.32;3.30;;;11.00;79.00;;;;;;5071220;28;20443;-72
2022/04/11 09:02:42;;;;;;;8.55;2.90;;;11.10;78.80;;;;;;5070100;28;20109;-73
2022/04/11 09:05:08;;;;;;;8.05;2.55;;;11.20;79.00;;;;;;5071186;28;20045;-72
2022/04/11 09:07:48;;;;;;;5.40;3.08;;;11.20;75.30;;;;;;5071466;28;20036;-72
2022/04/11 09:10:35;;;;;;;4.68;2.85;;;11.40;76.50;;;;;;5070957;28;20628;-72
2022/04/11 09:13:04;;;;;;;5.10;2.75;;;11.60;74.70;;;;;;5071247;28;20036;-73
2022/04/11 09:15:41;;;;;;;5.28;2.00;;;11.50;74.30;;;;;;5071106;28;20072;-73
2022/04/11 09:18:07;;;;;;;6.38;2.28;;;11.60;72.00;;;;;;5071463;28;20040;-73
2022/04/11 09:20:33;;;;;;;5.65;2.03;;;11.60;72.80;;;;;;5071004;28;20124;-72
2022/04/11 09:22:58;;;;;;;6.40;1.90;;;11.50;72.60;;;;;;5071217;28;20087;-73
2022/04/11 09:25:31;;;;;;;6.20;2.40;;;11.30;69.80;;;;;;5076153;28;20032;-73
2022/04/11 09:28:11;;;;;;;7.65;2.47;;;11.20;69.50;;;;;;5066282;28;20036;-73
2022/04/11 09:30:39;;;;;;;3.67;2.15;;;11.10;69.30;;;;;;5088812;28;20024;-72
2022/04/11 09:33:07;;;;;;;2.92;1.90;;;10.90;68.10;;;;;;5088379;28;20044;-73
2022/04/11 09:35:35;;;;;;;4.18;2.10;;;10.70;69.50;;;;;;5093567;28;20173;-73
2022/04/11 09:38:13;;;;;;;5.13;2.28;;;10.80;71.90;;;;;;5094676;28;20124;-73
2022/04/11 09:40:39;;;;;;;4.03;1.67;;;10.80;68.60;;;;;;5094411;28;20072;-72
2022/04/11 09:43:05;;;;;;;5.97;2.28;;;10.80;69.00;;;;;;5093445;28;20074;-73
2022/04/11 09:45:30;;;;;;;5.00;2.30;;;10.90;68.80;;;;;;5093446;28;20130;-72
2022/04/11 09:48:04;;;;;;;5.32;1.88;;;11.00;68.60;;;;;;5093302;28;20043;-72
2022/04/11 09:50:30;;;;;;;;;;;11.00;65.90;;;;;;5093781;28;20048;-72
2022/04/11 09:53:15;;;;;;;5.38;1.90;;;10.90;63.70;;;;;;5094575;28;20057;-72
2022/04/11 09:55:42;;;;;;;5.65;2.30;;;10.90;66.20;;;;;;5094481;28;20544;-72
2022/04/11 09:58:08;;;;;;;5.40;2.55;;;11.10;65.80;;;;;;5092826;28;20409;-72
2022/04/11 10:00:43;;;;;;;3.60;1.98;;;11.10;65.80;;;;;;5072641;28;20037;-72
2022/04/11 10:03:09;;;;;;;4.55;1.83;;;11.20;66.10;;;;;;5072945;28;20047;-72
2022/04/11 10:05:35;;;;;;;4.72;2.22;;;11.30;66.70;;;;;;5072716;28;20037;-72
2022/04/11 10:08:04;;;;;;;3.22;1.63;;;11.40;66.10;;;;;;5072896;28;20041;-72
2022/04/11 10:10:31;;;;;;;3.92;1.65;;;11.50;66.90;;;;;;5072346;28;20055;-73
2022/04/11 10:13:00;;;;;;;5.30;1.77;;;11.50;65.90;;;;;;5072624;28;20032;-72
2022/04/11 10:15:26;;;;;;;6.28;2.00;;;11.40;62.80;;;;;;5072525;28;20037;-73
2022/04/11 10:17:53;;;;;;;6.00;1.40;;;11.50;62.60;;;;;;5073781;28;20185;-72
2022/04/11 10:20:49;;;;;;;5.88;2.58;;;11.50;61.20;;;;;;5072232;28;20029;-72
2022/04/11 10:23:27;;;;;;;6.40;2.35;;;11.40;60.10;;;;;;5072711;28;20040;-72
2022/04/11 10:25:56;;;;;;;5.97;1.92;;;11.30;61.60;;;;;;5073628;28;20134;-72
2022/04/11 10:28:27;;;;;;;2.47;1.70;;;11.30;61.70;;;;;;5072511;28;20115;-73
2022/04/11 10:31:34;;;;;;;3.25;1.65;;;11.20;59.20;;;;;;5073294;28;20501;-72
2022/04/11 10:33:59;;;;;;;5.28;1.90;;;11.30;60.10;;;;;;5064412;28;20370;-72
2022/04/11 10:36:35;;;;;;;6.60;1.80;;;11.40;60.30;;;;;;5071795;28;20174;-72
2022/04/11 10:39:13;;;;;;;3.83;1.88;;;11.30;58.70;;;;;;5071869;28;20044;-72
2022/04/11 10:41:57;;;;;;;4.30;1.83;;;11.50;59.60;;;;;;5072077;28;20401;-72
2022/04/11 10:44:48;;;;;;;5.55;1.80;;;11.40;59.20;;;;;;5073336;28;20444;-72
2022/04/11 10:47:17;;;;;;;3.70;1.77;;;11.40;55.60;;;;;;5073100;28;20543;-72
2022/04/11 10:49:48;;;;;;;5.10;1.50;;;11.40;56.40;;;;;;5073118;28;20502;-72
2022/04/11 10:52:33;;;;;;;3.15;1.60;;;11.40;54.60;;;;;;5071629;28;20150;-72
2022/04/11 10:55:17;;;;;;;3.42;1.88;;;11.30;53.90;;;;;;5072981;28;20120;-72
2022/04/11 10:57:45;;;;;;;6.55;2.10;;;11.50;55.70;;;;;;5054927;28;20593;-73
2022/04/11 11:00:27;;;;;;;7.20;2.20;;;11.50;56.90;;;;;;5070079;28;20039;-70
2022/04/11 11:02:52;;;;;;;7.22;2.40;;;12.00;56.80;;;;;;5072039;28;20032;-70
2022/04/11 11:05:35;;;;;;;3.63;1.77;;;12.20;54.60;;;;;;5072465;28;20040;-69
2022/04/11 11:08:24;;;;;;;4.60;1.87;;;12.30;55.70;;;;;;5076345;28;20492;-71
2022/04/11 11:10:58;;;;;;;7.72;2.17;;;12.30;53.90;;;;;;5075224;28;20044;-70
2022/04/11 11:13:35;;;;;;;4.32;1.90;;;12.50;56.70;;;;;;5084258;28;20097;-70
2022/04/11 11:16:07;;;;;;;6.65;2.17;;;12.50;56.20;;;;;;5093044;28;20127;-70
2022/04/11 11:18:48;;;;;;;4.88;1.95;;;12.50;55.60;;;;;;5092787;28;20519;-70
2022/04/11 11:21:32;;;;;;;4.22;2.00;;;12.50;55.50;;;;;;5091566;28;20078;-71
2022/04/11 11:24:08;;;;;;;;;;;12.30;54.10;;;;;;5092257;28;20051;-71
2022/04/11 11:26:45;;;;;;;6.63;2.38;;;12.20;54.40;;;;;;5092664;28;19965;-70
2022/04/11 11:29:35;;;;;;;6.20;2.47;;;12.40;55.90;;;;;;5091424;28;20032;-71
2022/04/11 11:32:06;;;;;;;6.57;2.55;;;12.40;56.00;;;;;;5091393;28;20036;-71
2022/04/11 11:34:36;;;;;;;3.80;2.17;;;12.50;56.00;;;;;;5091685;28;20072;-70
2022/04/11 11:37:12;;;;;;;5.55;2.20;;;12.50;56.00;;;;;;5092132;28;20044;-70
2022/04/11 11:39:40;;;;;;;5.40;2.60;;;12.50;55.80;;;;;;5079761;28;20074;-70
2022/04/11 11:42:14;;;;;;;5.50;2.50;;;12.50;56.20;;;;;;5087672;28;20044;-70
2022/04/11 11:44:47;;;;;;;5.90;2.58;;;12.50;55.30;;;;;;5087416;28;20051;-70
2022/04/11 11:47:13;;;;;;;8.40;2.38;;;12.60;54.80;;;;;;5084377;28;20068;-70
2022/04/11 11:49:44;;;;;;;4.47;2.75;;;12.50;53.30;;;;;;5089248;28;20088;-70
2022/04/11 11:52:15;;;;;;;6.55;2.13;;;12.40;54.20;;;;;;5090746;28;20032;-70
2022/04/11 11:54:43;;;;;;;5.78;2.60;;;12.40;55.50;;;;;;5092181;28;20493;-70
2022/04/11 11:57:20;;;;;;;6.90;3.15;;;12.40;55.40;;;;;;5092301;28;20040;-70
2022/04/11 12:00:07;;;;;;;6.68;3.28;;;12.40;54.50;;;;;;5091146;28;20048;-71
2022/04/11 12:05:24;;;;;;;4.43;2.55;;;12.40;54.80;;;;;;5077252;28;20052;-70
2022/04/11 12:08:17;;;;;;;4.78;2.40;;;12.40;54.10;;;;;;5089449;28;20044;-70
2022/04/11 12:10:44;;;;;;;4.90;2.53;;;12.40;53.20;;;;;;5085522;28;20127;-70
2022/04/11 12:13:11;;;;;;;6.10;2.83;;;12.30;53.10;;;;;;5081094;28;20135;-70
2022/04/11 12:15:37;;;;;;;3.88;2.53;;;12.30;53.40;;;;;;5082059;28;20048;-70
2022/04/11 12:18:07;;;;;;;5.78;3.08;;;12.40;53.40;;;;;;5075865;28;20041;-71
2022/04/11 12:20:34;;;;;;;4.55;2.95;;;12.40;53.10;;;;;;5070829;28;20044;-71
2022/04/11 12:23:01;;;;;;;4.35;2.85;;;12.40;53.00;;;;;;5071064;28;20048;-70
2022/04/11 12:25:29;;;;;;;6.30;2.90;;;12.40;52.80;;;;;;5071748;28;20032;-70
2022/04/11 12:28:15;;;;;;;6.15;2.85;;;12.50;52.70;;;;;;5071721;28;20036;-72
2022/04/11 12:30:46;;;;;;;5.72;3.60;;;12.40;51.70;;;;;;5070227;28;20052;-73
2022/04/11 12:33:33;;;;;;;5.68;2.88;;;12.50;53.50;;;;;;5071539;28;20041;-70
2022/04/11 12:36:16;;;;;;;7.22;3.53;;;12.60;53.10;;;;;;5071795;28;20440;-70
2022/04/11 12:39:19;;;;;;;5.70;2.70;;;12.60;52.60;;;;;;5071375;28;20043;-71
2022/04/11 12:41:45;;;;;;;6.22;3.47;;;12.60;53.10;;;;;;5036698;28;20123;-70
2022/04/11 12:44:15;;;;;;;5.80;3.33;;;12.60;53.40;;;;;;5070493;28;20087;-71
2022/04/11 12:46:45;;;;;;;7.03;3.00;;;12.60;52.50;;;;;;5071346;28;20047;-71
2022/04/11 12:49:16;;;;;;;6.32;3.50;;;12.60;52.20;;;;;;5070172;28;20045;-73
2022/04/11 12:51:42;;;;;;;3.42;2.75;;;12.60;52.20;;;;;;5069791;28;20044;-73
2022/04/11 12:54:09;;;;;;;5.15;3.00;;;12.50;52.10;;;;;;5071353;28;20090;-73
2022/04/11 12:56:36;;;;;;;8.15;3.60;;;12.50;52.00;;;;;;5069747;28;20048;-69
2022/04/11 12:59:01;;;;;;;5.60;3.40;;;12.70;51.10;;;;;;5072967;28;20651;-69
2022/04/11 13:01:52;;;;;;;8.00;2.92;;;12.90;51.50;;;;;;5073322;28;20036;-70
2022/04/11 13:04:18;;;;;;;5.50;2.70;;;13.00;51.00;;;;;;5075006;28;20040;-69